Time;durP1;ratioP1;P1;durP2;ratioP2;P2;SDS_P1;SDS_P2;PMS_P1;PMS_P2;Temp;Humidity;BMP_temperature;BMP_pressure;BME280_temperature;BME280_humidity;BME280_pressure;Samples;Min_cycle;Max_cycle;Signal;HPM_P1;HPM_P2
2022/01/08 00:00:00;;;;;;;32.63;18.02;;;;;;;-1.35;100.00;101048.69;5074398;28;20036;-81
2022/01/08 00:02:25;;;;;;;40.90;18.83;;;;;;;-1.41;100.00;101045.97;5072272;28;20032;-81
2022/01/08 00:04:50;;;;;;;40.78;18.52;;;;;;;-1.45;100.00;101049.25;5088186;28;20028;-82
2022/01/08 00:07:16;;;;;;;33.92;17.75;;;;;;;-1.47;100.00;101056.03;5080262;28;20476;-82
2022/01/08 00:09:41;;;;;;;35.22;18.15;;;;;;;-1.50;100.00;101046.59;5087930;28;20052;-81
2022/01/08 00:12:07;;;;;;;32.20;17.88;;;;;;;-1.50;100.00;101055.97;5092881;28;20471;-81
2022/01/08 00:14:32;;;;;;;35.15;18.27;;;;;;;-1.54;100.00;101056.66;5084264;28;20032;-82
2022/01/08 00:16:58;;;;;;;41.55;18.88;;;;;;;-1.59;100.00;101066.78;5073971;28;20020;-81
2022/01/08 00:19:23;;;;;;;39.80;20.10;;;;;;;-1.59;100.00;101066.78;5090952;28;20024;-81
2022/01/08 00:21:49;;;;;;;42.05;21.35;;;;;;;-1.56;100.00;101071.97;5072979;28;20116;-81
2022/01/08 00:24:15;;;;;;;46.33;20.95;;;;;;;-1.57;100.00;101075.38;5075753;28;20036;-81
2022/01/08 00:26:40;;;;;;;39.95;20.83;;;;;;;-1.58;100.00;101076.16;5075128;28;20427;-81
2022/01/08 00:29:06;;;;;;;46.92;21.38;;;;;;;-1.59;100.00;101069.31;5081574;28;20536;-81
2022/01/08 00:31:31;;;;;;;43.10;20.95;;;;;;;-1.66;100.00;101063.16;5080368;28;20110;-81
2022/01/08 00:33:57;;;;;;;48.35;21.92;;;;;;;-1.59;100.00;101063.34;5089864;28;20020;-81
2022/01/08 00:36:22;;;;;;;49.70;24.20;;;;;;;-1.56;100.00;101068.56;5081188;28;20035;-81
2022/01/08 00:38:47;;;;;;;53.30;22.73;;;;;;;-1.51;100.00;101069.53;5076027;28;20024;-81
2022/01/08 00:41:12;;;;;;;43.65;23.00;;;;;;;-1.52;100.00;101072.94;5081735;28;20392;-80
2022/01/08 00:43:38;;;;;;;45.15;23.08;;;;;;;-1.52;100.00;101078.03;5091320;28;20031;-81
2022/01/08 00:46:03;;;;;;;44.92;23.25;;;;;;;-1.50;100.00;101081.53;5079174;28;20414;-81
2022/01/08 00:48:28;;;;;;;45.72;24.38;;;;;;;-1.50;100.00;101087.50;5091847;28;20028;-81
2022/01/08 00:50:54;;;;;;;51.92;24.38;;;;;;;-1.51;100.00;101087.44;5086987;28;20025;-81
2022/01/08 00:53:20;;;;;;;52.03;24.58;;;;;;;-1.49;100.00;101099.47;5072127;28;20036;-81
2022/01/08 00:55:45;;;;;;;58.97;25.70;;;;;;;-1.52;100.00;101091.69;5076517;28;20123;-81
2022/01/08 00:58:10;;;;;;;53.92;25.38;;;;;;;-1.49;100.00;101099.47;5081241;28;20036;-81
2022/01/08 01:00:36;;;;;;;46.70;23.90;;;;;;;-1.49;100.00;101093.47;5089670;28;20031;-81
2022/01/08 01:03:02;;;;;;;49.90;24.35;;;;;;;-1.53;100.00;101094.22;5091956;28;20040;-81
2022/01/08 01:05:27;;;;;;;55.13;23.80;;;;;;;-1.56;100.00;101096.69;5089519;28;20387;-81
2022/01/08 01:07:54;;;;;;;41.90;22.98;;;;;;;-1.62;100.00;101092.25;5092361;28;20468;-81
2022/01/08 01:10:19;;;;;;;50.17;23.80;;;;;;;-1.71;100.00;101084.28;5072858;28;20511;-81
2022/01/08 01:12:44;;;;;;;55.20;23.50;;;;;;;-1.72;100.00;101083.44;5083432;28;20032;-81
2022/01/08 01:15:13;;;;;;;45.13;23.38;;;;;;;-1.66;100.00;101082.75;5071748;28;20035;-81
2022/01/08 01:17:38;;;;;;;54.03;24.88;;;;;;;-1.68;100.00;101092.06;5071470;28;20028;-81
2022/01/08 01:20:05;;;;;;;53.00;23.73;;;;;;;-1.73;100.00;101084.25;5072404;28;20032;-80
2022/01/08 01:22:41;;;;;;;44.50;23.10;;;;;;;-1.73;100.00;101078.28;5076064;28;20448;-81
2022/01/08 01:25:09;;;;;;;52.85;23.73;;;;;;;-1.81;100.00;101077.16;5072675;28;20028;-81
2022/01/08 01:30:11;;;;;;;50.10;23.77;;;;;;;-1.88;100.00;101088.91;5071583;28;20033;-82
2022/01/08 01:49:04;;;;;;;53.70;27.23;;;;;;;-1.92;100.00;101107.50;5046793;28;20036;-82
2022/01/08 01:51:29;;;;;;;68.90;28.95;;;;;;;-1.94;100.00;101099.78;5072283;28;20025;-81
2022/01/08 01:53:55;;;;;;;54.97;26.60;;;;;;;-1.99;100.00;101095.38;5084466;28;20496;-81
2022/01/08 01:56:21;;;;;;;59.20;28.83;;;;;;;-1.99;100.00;101100.47;5088756;28;20028;-81
2022/01/08 01:58:47;;;;;;;61.53;30.08;;;;;;;-2.03;100.00;101098.63;5086685;28;20032;-82
2022/01/08 02:01:14;;;;;;;52.65;27.15;;;;;;;-2.07;100.00;101094.25;5088943;28;20040;-81
2022/01/08 02:03:41;;;;;;;62.30;27.58;;;;;;;-2.09;100.00;101095.88;5090246;28;20035;-81
2022/01/08 02:06:08;;;;;;;65.90;29.88;;;;;;;-2.03;100.00;101096.94;5089805;28;20056;-81
2022/01/08 02:08:35;;;;;;;63.00;28.48;;;;;;;-2.06;100.00;101095.97;5082216;28;20024;-81
2022/01/08 02:11:00;;;;;;;62.30;28.27;;;;;;;-2.09;100.00;101093.31;5082364;28;20027;-81
2022/01/08 02:13:28;;;;;;;67.22;28.98;;;;;;;-2.12;100.00;101097.53;5071780;28;20476;-81
2022/01/08 02:15:55;;;;;;;59.50;28.05;;;;;;;-2.10;100.00;101106.91;5080055;28;20023;-81
2022/01/08 02:18:23;;;;;;;62.22;27.83;;;;;;;-2.13;100.00;101103.47;5073667;28;20052;-81
2022/01/08 02:20:48;;;;;;;68.30;29.25;;;;;;;-2.16;100.00;101093.16;5072180;28;20040;-81
2022/01/08 02:23:13;;;;;;;64.53;29.88;;;;;;;-2.17;100.00;101096.50;5077812;28;20494;-81
2022/01/08 02:25:39;;;;;;;64.72;29.45;;;;;;;-2.15;100.00;101109.34;5074402;28;20537;-81
2022/01/08 02:28:05;;;;;;;60.97;29.52;;;;;;;-2.16;100.00;101102.47;5071264;28;20051;-81
2022/01/08 02:30:31;;;;;;;69.72;30.08;;;;;;;-2.15;100.00;101117.00;5073809;28;20021;-81
2022/01/08 02:32:56;;;;;;;76.57;30.98;;;;;;;-2.10;100.00;101114.59;5088721;28;20032;-81
2022/01/08 02:35:22;;;;;;;78.22;32.60;;;;;;;-2.07;100.00;101114.69;5076936;28;20077;-81
2022/01/08 02:37:49;;;;;;;76.68;34.15;;;;;;;-1.98;100.00;101110.72;5077861;28;20051;-81
2022/01/08 02:40:15;;;;;;;79.88;33.58;;;;;;;-1.87;100.00;101121.28;5088003;28;20032;-81
2022/01/08 02:42:50;;;;;;;83.88;35.65;;;;;;;-1.81;100.00;101121.47;5083194;28;20032;-81
2022/01/08 02:45:17;;;;;;;90.18;36.08;;;;;;;-1.80;100.00;101120.69;5078999;28;20069;-81
2022/01/08 02:47:42;;;;;;;90.22;35.08;;;;;;;-1.71;100.00;101113.28;5088876;28;20020;-81
2022/01/08 02:50:08;;;;;;;97.07;37.70;;;;;;;-1.58;100.00;101123.88;5074435;28;20384;-81
2022/01/08 02:52:33;;;;;;;102.80;38.75;;;;;;;-1.51;100.00;101113.00;5070236;28;20036;-81
2022/01/08 02:54:59;;;;;;;99.78;37.55;;;;;;;-1.46;100.00;101125.13;5081105;28;20033;-81
2022/01/08 02:57:24;;;;;;;93.78;38.95;;;;;;;-1.46;100.00;101120.00;5073676;28;20029;-81
2022/01/08 02:59:49;;;;;;;96.38;38.80;;;;;;;-1.48;100.00;101120.78;5079186;28;20040;-81
2022/01/08 03:02:15;;;;;;;88.15;36.17;;;;;;;-1.52;100.00;101118.97;5080591;28;20065;-82
2022/01/08 03:04:40;;;;;;;92.05;36.17;;;;;;;-1.49;100.00;101122.47;5079154;28;20032;-81
2022/01/08 03:07:06;;;;;;;84.20;36.30;;;;;;;-1.51;100.00;101120.69;5075209;28;20036;-81
2022/01/08 03:09:35;;;;;;;75.75;33.40;;;;;;;-1.54;100.00;101120.59;5084029;28;20032;-81
2022/01/08 03:12:00;;;;;;;79.35;34.53;;;;;;;-1.58;100.00;101117.06;5093515;28;20073;-81
2022/01/08 03:14:25;;;;;;;76.30;33.22;;;;;;;-1.62;100.00;101115.25;5073327;28;20028;-81
2022/01/08 03:16:50;;;;;;;86.45;33.75;;;;;;;-1.70;100.00;101119.25;5088472;28;20036;-81
2022/01/08 03:19:16;;;;;;;77.28;33.38;;;;;;;-1.74;100.00;101118.28;5093314;28;20063;-81
2022/01/08 03:21:44;;;;;;;81.20;33.75;;;;;;;-1.71;100.00;101117.53;5092062;28;20453;-81
2022/01/08 03:24:15;;;;;;;74.65;34.38;;;;;;;-1.71;100.00;101120.94;5088138;28;20078;-81
2022/01/08 03:26:41;;;;;;;84.60;34.55;;;;;;;-1.72;100.00;101128.56;5082801;28;20028;-81
2022/01/08 03:29:07;;;;;;;81.45;33.85;;;;;;;-1.73;100.00;101130.28;5074135;28;20032;-81
2022/01/08 03:31:33;;;;;;;85.10;34.53;;;;;;;-1.77;100.00;101120.75;5086952;28;20058;-81
2022/01/08 03:33:58;;;;;;;82.38;33.25;;;;;;;-1.82;100.00;101122.31;5084977;28;20032;-81
2022/01/08 03:36:24;;;;;;;77.60;33.35;;;;;;;-1.84;100.00;101120.53;5073606;28;20125;-81
2022/01/08 03:38:51;;;;;;;80.05;35.95;;;;;;;-1.83;100.00;101115.47;5082094;28;20027;-81
2022/01/08 03:41:16;;;;;;;77.03;35.25;;;;;;;-1.81;100.00;101118.94;5083416;28;20059;-81
2022/01/08 03:43:41;;;;;;;80.68;34.03;;;;;;;-1.84;100.00;101121.38;5093904;28;20157;-81
2022/01/08 03:46:07;;;;;;;75.60;33.85;;;;;;;-1.85;100.00;101119.66;5092693;28;20031;-81
2022/01/08 03:48:45;;;;;;;75.90;34.28;;;;;;;-1.81;100.00;101125.72;5091100;28;20040;-81
2022/01/08 03:51:13;;;;;;;75.63;33.90;;;;;;;-1.85;100.00;101127.31;5093420;28;20491;-82
2022/01/08 03:53:38;;;;;;;69.90;31.90;;;;;;;-1.89;100.00;101117.84;5080268;28;20042;-81
2022/01/08 03:56:04;;;;;;;67.85;32.80;;;;;;;-1.88;100.00;101120.41;5082665;28;20036;-81
2022/01/08 03:58:30;;;;;;;77.10;34.97;;;;;;;-1.86;100.00;101123.03;5083479;28;20032;-81
2022/01/08 04:00:55;;;;;;;80.57;35.80;;;;;;;-1.76;100.00;101126.75;5086349;28;20021;-81
2022/01/08 04:03:20;;;;;;;86.85;37.55;;;;;;;-1.69;100.00;101126.97;5072973;28;20073;-81
2022/01/08 04:05:47;;;;;;;83.10;36.85;;;;;;;-1.69;100.00;101126.97;5073384;28;20404;-81
2022/01/08 04:08:13;;;;;;;88.00;39.70;;;;;;;-1.58;100.00;101137.53;5081221;28;20472;-81
2022/01/08 04:10:39;;;;;;;94.50;41.38;;;;;;;-1.59;100.00;101127.28;5079074;28;20059;-81
2022/01/08 04:13:10;;;;;;;96.03;41.45;;;;;;;-1.54;100.00;101139.34;5075871;28;20051;-81
2022/01/08 04:15:39;;;;;;;85.28;39.50;;;;;;;-1.58;100.00;101123.88;5091703;28;20494;-81
2022/01/08 04:18:05;;;;;;;96.30;41.95;;;;;;;-1.56;100.00;101138.47;5093276;28;20069;-81
2022/01/08 04:20:30;;;;;;;96.07;42.97;;;;;;;-1.57;100.00;101135.84;5090537;28;20028;-81
2022/01/08 04:22:55;;;;;;;94.70;41.65;;;;;;;-1.59;100.00;101137.50;5087176;28;20059;-81
2022/01/08 04:25:23;;;;;;;91.78;41.60;;;;;;;-1.59;100.00;101140.06;5083650;28;20034;-81
2022/01/08 04:27:48;;;;;;;85.50;40.63;;;;;;;-1.61;100.00;101140.00;5073692;28;20025;-81
2022/01/08 04:30:14;;;;;;;81.32;41.72;;;;;;;-1.65;100.00;101145.84;5073774;28;20559;-81
2022/01/08 04:32:42;;;;;;;86.97;41.35;;;;;;;-1.64;100.00;101152.69;5072298;28;20468;-81
2022/01/08 04:35:08;;;;;;;87.13;41.08;;;;;;;-1.65;100.00;101150.94;5073141;28;20044;-82
2022/01/08 04:37:33;;;;;;;83.55;39.42;;;;;;;-1.67;100.00;101158.59;5089413;28;20373;-81
2022/01/08 04:39:58;;;;;;;88.20;39.03;;;;;;;-1.68;100.00;101163.63;5089490;28;20395;-81
2022/01/08 04:42:24;;;;;;;80.93;40.22;;;;;;;-1.68;100.00;101149.16;5082686;28;20032;-81
2022/01/08 04:44:49;;;;;;;83.15;40.20;;;;;;;-1.65;100.00;101164.59;5091948;28;20040;-82
2022/01/08 04:47:15;;;;;;;93.75;44.13;;;;;;;-1.59;100.00;101158.81;5092475;28;20036;-81
2022/01/08 04:49:40;;;;;;;84.53;40.10;;;;;;;-1.59;100.00;101158.81;5089893;28;20032;-82
2022/01/08 04:52:06;;;;;;;88.88;39.67;;;;;;;-1.62;100.00;101168.09;5085533;28;20032;-82
2022/01/08 04:54:32;;;;;;;84.32;38.63;;;;;;;-1.63;100.00;101167.22;5074455;28;20484;-82
2022/01/08 04:56:57;;;;;;;82.07;37.28;;;;;;;-1.67;100.00;101171.38;5075578;28;20094;-81
2022/01/08 04:59:22;;;;;;;74.80;36.47;;;;;;;-1.72;100.00;101166.91;5090310;28;20028;-81
2022/01/08 05:01:47;;;;;;;68.47;36.20;;;;;;;-1.73;100.00;101171.16;5091488;28;20111;-82
2022/01/08 05:04:13;;;;;;;78.47;35.70;;;;;;;-1.76;100.00;101175.31;5091673;28;20031;-81
2022/01/08 05:06:38;;;;;;;73.90;33.28;;;;;;;-1.82;100.00;101170.88;5089555;28;20027;-81
2022/01/08 05:09:04;;;;;;;68.63;32.35;;;;;;;-1.81;100.00;101184.50;5082070;28;20464;-81
2022/01/08 05:11:30;;;;;;;73.20;32.95;;;;;;;-1.84;100.00;101180.16;5089487;28;20031;-81
2022/01/08 05:13:56;;;;;;;69.90;33.60;;;;;;;-1.86;100.00;101184.38;5092032;28;20089;-81
2022/01/08 05:16:22;;;;;;;64.10;32.25;;;;;;;-1.83;100.00;101183.59;5090192;28;20116;-81
2022/01/08 05:18:50;;;;;;;68.95;32.78;;;;;;;-1.85;100.00;101188.66;5090982;28;20035;-81
2022/01/08 05:21:24;;;;;;;79.00;32.42;;;;;;;-1.83;100.00;101193.81;5089498;28;20036;-82
2022/01/08 05:23:50;;;;;;;56.15;29.95;;;;;;;-1.85;100.00;101196.31;5078193;28;20059;-82
2022/01/08 05:26:16;;;;;;;68.00;31.52;;;;;;;-1.75;100.00;101189.84;5072559;28;20021;-82
2022/01/08 05:28:44;;;;;;;74.80;31.80;;;;;;;-1.70;100.00;101184.06;5091649;28;20024;-82
2022/01/08 05:31:10;;;;;;;75.43;30.92;;;;;;;-1.60;100.00;101184.31;5072614;28;20426;-82
2022/01/08 05:33:35;;;;;;;69.80;32.53;;;;;;;-1.59;100.00;101174.16;5087554;28;20049;-82
2022/01/08 05:36:00;;;;;;;75.28;33.08;;;;;;;-1.53;100.00;101182.03;5082647;28;20070;-82
2022/01/08 05:38:25;;;;;;;71.50;32.17;;;;;;;-1.51;100.00;101187.16;5083540;28;20120;-81
2022/01/08 05:40:51;;;;;;;74.53;33.08;;;;;;;-1.49;100.00;101183.84;5090390;28;20048;-82
2022/01/08 05:43:16;;;;;;;71.47;31.77;;;;;;;-1.58;100.00;101157.97;5091421;28;20024;-82
2022/01/08 05:45:41;;;;;;;74.70;31.60;;;;;;;-1.58;100.00;101168.22;5087529;28;20032;-82
2022/01/08 05:48:08;;;;;;;70.93;31.27;;;;;;;-1.62;100.00;101178.31;5079676;28;20111;-82
2022/01/08 05:50:33;;;;;;;67.10;29.35;;;;;;;-1.68;100.00;101184.09;5076112;28;20464;-81
2022/01/08 05:52:59;;;;;;;67.07;28.85;;;;;;;-1.76;100.00;101181.31;5082820;28;20069;-82
2022/01/08 05:55:24;;;;;;;59.83;27.90;;;;;;;-1.74;100.00;101191.56;5075741;28;20496;-82
2022/01/08 05:57:49;;;;;;;61.03;27.88;;;;;;;-1.77;100.00;101194.88;5085551;28;20077;-82
2022/01/08 06:00:15;;;;;;;63.95;28.15;;;;;;;-1.77;100.00;101199.97;5089047;28;20032;-82
2022/01/08 06:02:40;;;;;;;59.95;28.40;;;;;;;-1.80;100.00;101204.13;5073892;28;20392;-81
2022/01/08 06:05:07;;;;;;;67.43;27.88;;;;;;;-1.82;100.00;101209.22;5072371;28;20042;-81
2022/01/08 06:07:33;;;;;;;64.95;28.50;;;;;;;-1.83;100.00;101217.72;5073509;28;20051;-82
2022/01/08 06:09:58;;;;;;;60.83;27.45;;;;;;;-1.80;100.00;101216.91;5080660;28;20119;-81
2022/01/08 06:12:23;;;;;;;58.33;28.25;;;;;;;-1.80;100.00;101209.25;5084924;28;20415;-82
2022/01/08 06:14:48;;;;;;;59.90;28.55;;;;;;;-1.78;100.00;101212.72;5090349;28;20028;-82
2022/01/08 06:17:14;;;;;;;65.53;30.90;;;;;;;-1.77;100.00;101217.00;5091634;28;20032;-82
2022/01/08 06:19:39;;;;;;;59.03;28.55;;;;;;;-1.77;100.00;101215.31;5088998;28;20025;-82
2022/01/08 06:22:05;;;;;;;66.03;28.33;;;;;;;-1.75;100.00;101233.28;5082859;28;20037;-82
2022/01/08 06:24:30;;;;;;;62.75;27.70;;;;;;;-1.76;100.00;101224.75;5086491;28;20028;-82
2022/01/08 06:26:56;;;;;;;62.28;28.67;;;;;;;-1.75;100.00;101223.91;5082616;28;20497;-82
2022/01/08 06:29:21;;;;;;;62.65;29.52;;;;;;;-1.72;100.00;101228.28;5091848;28;20035;-82
2022/01/08 06:31:47;;;;;;;67.15;30.10;;;;;;;-1.73;100.00;101219.75;5094771;28;20024;-82
2022/01/08 06:34:12;;;;;;;66.45;29.67;;;;;;;-1.70;100.00;101209.63;5095146;28;20028;-82
2022/01/08 06:36:37;;;;;;;63.15;30.05;;;;;;;-1.70;100.00;101207.06;5092159;28;20027;-82
2022/01/08 06:39:03;;;;;;;68.10;30.38;;;;;;;-1.67;100.00;101206.25;5094896;28;20174;-82
2022/01/08 06:41:29;;;;;;;64.97;30.33;;;;;;;-1.65;100.00;101200.38;5075301;28;20024;-82
2022/01/08 06:43:57;;;;;;;80.07;31.23;;;;;;;-1.68;100.00;101195.19;5086116;28;20028;-82
2022/01/08 06:46:23;;;;;;;68.15;29.02;;;;;;;-1.72;100.00;101192.50;5075768;28;20064;-82
2022/01/08 06:48:49;;;;;;;67.38;29.75;;;;;;;-1.75;100.00;101194.94;5078435;28;20045;-82
2022/01/08 06:51:14;;;;;;;60.88;28.02;;;;;;;-1.80;100.00;101192.25;5082432;28;20036;-81
2022/01/08 06:53:39;;;;;;;62.60;28.45;;;;;;;-1.80;100.00;101187.13;5081583;28;20170;-82
2022/01/08 06:56:05;;;;;;;67.32;28.38;;;;;;;-1.81;100.00;101182.81;5081675;28;20024;-81
2022/01/08 06:58:31;;;;;;;65.57;29.52;;;;;;;-1.79;100.00;101186.31;5093766;28;20032;-81
2022/01/08 07:00:56;;;;;;;66.97;28.80;;;;;;;-1.81;100.00;101187.94;5094666;28;20031;-81
2022/01/08 07:03:22;;;;;;;58.95;28.20;;;;;;;-1.84;100.00;101185.28;5092811;28;20036;-82
2022/01/08 07:05:47;;;;;;;65.18;28.02;;;;;;;-1.84;100.00;101192.94;5087657;28;20037;-82
2022/01/08 07:08:12;;;;;;;69.72;29.10;;;;;;;-1.82;100.00;101190.47;5074543;28;20075;-81
2022/01/08 07:10:38;;;;;;;63.03;29.20;;;;;;;-1.80;100.00;101188.78;5073308;28;20032;-82
2022/01/08 07:13:03;;;;;;;69.40;27.80;;;;;;;-1.81;100.00;101189.63;5074022;28;20031;-81
2022/01/08 07:15:28;;;;;;;68.82;28.67;;;;;;;-1.84;100.00;101192.94;5074134;28;20035;-81
2022/01/08 07:17:54;;;;;;;62.33;28.73;;;;;;;-1.85;100.00;101190.34;5085289;28;20473;-82
2022/01/08 07:20:19;;;;;;;59.63;27.67;;;;;;;-1.92;100.00;101187.59;5073945;28;20106;-82
2022/01/08 07:22:45;;;;;;;60.65;26.88;;;;;;;-1.91;100.00;101180.78;5073820;28;20025;-81
2022/01/08 07:25:11;;;;;;;64.88;28.17;;;;;;;-1.85;100.00;101201.44;5089518;28;20089;-82
2022/01/08 07:27:37;;;;;;;68.90;27.83;;;;;;;-1.78;100.00;101193.16;5093869;28;20028;-82
2022/01/08 07:30:07;;;;;;;83.50;30.65;;;;;;;-1.75;100.00;101197.50;5094115;28;20020;-81
2022/01/08 07:32:43;;;;;;;76.20;29.35;;;;;;;-1.73;100.00;101191.63;5092950;28;20101;-81
2022/01/08 07:35:09;;;;;;;64.03;28.40;;;;;;;-1.71;100.00;101187.41;5092552;28;20059;-81
2022/01/08 07:37:35;;;;;;;83.95;29.67;;;;;;;-1.71;100.00;101182.28;5093838;28;20032;-81
2022/01/08 07:40:00;;;;;;;82.25;30.50;;;;;;;-1.62;100.00;101191.09;5087914;28;20043;-81
2022/01/08 07:42:25;;;;;;;77.68;28.50;;;;;;;-1.65;100.00;101179.94;5093024;28;20024;-81
2022/01/08 07:44:50;;;;;;;78.78;28.38;;;;;;;-1.57;100.00;101192.09;5079439;28;20020;-81
2022/01/08 07:47:17;;;;;;;77.35;27.77;;;;;;;-1.56;100.00;101184.47;5091664;28;20078;-81
2022/01/08 07:49:42;;;;;;;77.45;25.48;;;;;;;-1.54;100.00;101180.25;5093631;28;20407;-81
2022/01/08 07:52:07;;;;;;;77.35;26.77;;;;;;;-1.51;100.00;101187.16;5093414;28;20020;-81
2022/01/08 07:54:33;;;;;;;77.35;29.27;;;;;;;-1.46;100.00;101188.19;5084596;28;20451;-81
2022/01/08 07:56:58;;;;;;;75.78;27.38;;;;;;;-1.45;100.00;101183.09;5073593;28;20527;-81
2022/01/08 07:59:24;;;;;;;81.00;27.15;;;;;;;-1.44;100.00;101179.75;5072543;28;20473;-81
2022/01/08 08:01:49;;;;;;;71.32;25.48;;;;;;;-1.42;100.00;101172.13;5073086;28;20035;-81
2022/01/08 08:04:14;;;;;;;78.80;27.38;;;;;;;-1.42;100.00;101164.44;5075432;28;20085;-81
2022/01/08 08:06:44;;;;;;;84.63;27.63;;;;;;;-1.39;100.00;101156.84;5079207;28;20038;-82
2022/01/08 08:09:09;;;;;;;75.68;28.45;;;;;;;-1.34;100.00;101163.00;5077306;28;20032;-82
2022/01/08 08:11:34;;;;;;;83.13;27.60;;;;;;;-1.31;100.00;101169.88;5072701;28;20524;-83
2022/01/08 08:14:00;;;;;;;76.72;27.75;;;;;;;-1.28;100.00;101159.72;5073661;28;20024;-83
2022/01/08 08:16:25;;;;;;;83.57;29.10;;;;;;;-1.28;100.00;101168.28;5072244;28;20041;-82
2022/01/08 08:18:50;;;;;;;93.53;29.10;;;;;;;-1.25;100.00;101159.81;5073302;28;20412;-82
2022/01/08 08:21:16;;;;;;;92.85;29.40;;;;;;;-1.26;100.00;101158.97;5087109;28;20044;-82
2022/01/08 08:23:41;;;;;;;89.32;29.30;;;;;;;-1.19;100.00;101155.75;5091030;28;20035;-82
2022/01/08 08:26:06;;;;;;;101.70;31.65;;;;;;;-1.14;100.00;101153.34;5075265;28;20028;-82
2022/01/08 08:28:31;;;;;;;101.38;32.03;;;;;;;-1.10;100.00;101154.31;5071615;28;20043;-82
2022/01/08 08:30:57;;;;;;;101.10;30.42;;;;;;;-1.04;100.00;101160.47;5072741;28;20065;-82
2022/01/08 08:33:22;;;;;;;116.00;34.53;;;;;;;-0.99;100.00;101150.34;5072709;28;20065;-82
2022/01/08 08:35:47;;;;;;;114.95;34.78;;;;;;;-0.95;100.00;101140.25;5073018;28;20388;-83
2022/01/08 08:38:13;;;;;;;107.43;33.58;;;;;;;-0.87;100.00;101153.25;5074131;28;20388;-82
2022/01/08 08:40:38;;;;;;;106.25;34.35;;;;;;;-0.82;100.00;101145.69;5091593;28;20495;-83
2022/01/08 08:43:04;;;;;;;134.38;37.70;;;;;;;-0.79;100.00;101144.09;5092043;28;20464;-83
2022/01/08 08:45:29;;;;;;;120.65;35.85;;;;;;;-0.71;100.00;101154.56;5089392;28;20067;-83
2022/01/08 08:47:56;;;;;;;133.63;38.60;;;;;;;-0.68;100.00;101149.53;5082966;28;20061;-82
2022/01/08 08:50:23;;;;;;;139.00;39.47;;;;;;;-0.60;100.00;101127.53;5091824;28;20027;-83
2022/01/08 08:52:50;;;;;;;149.57;41.15;;;;;;;-0.56;100.00;101133.59;5092254;28;20043;-84
2022/01/08 08:55:18;;;;;;;145.85;40.30;;;;;;;-0.45;100.00;101136.47;5079800;28;20047;-83
2022/01/08 08:57:43;;;;;;;153.48;41.20;;;;;;;-0.50;100.00;101119.25;5074072;28;20109;-83
2022/01/08 09:00:09;;;;;;;117.18;33.25;;;;;;;-0.35;100.00;101138.44;5088143;28;20059;-84
2022/01/08 09:02:34;;;;;;;159.60;43.85;;;;;;;-0.31;100.00;101138.53;5071343;28;20032;-84
2022/01/08 09:05:00;;;;;;;157.88;44.85;;;;;;;-0.28;100.00;101137.75;5073137;28;20028;-84
2022/01/08 09:07:25;;;;;;;155.93;41.38;;;;;;;-0.21;100.00;101131.09;5071657;28;20027;-85
2022/01/08 09:09:50;;;;;;;145.32;41.67;;;;;;;-0.19;100.00;101138.00;5071022;28;20085;-84
2022/01/08 09:12:16;;;;;;;156.70;41.40;;;;;;;-0.14;100.00;101138.09;5071580;28;20054;-85
2022/01/08 09:14:43;;;;;;;172.15;45.38;;;;;;;-0.10;100.00;101137.34;5072723;28;20079;-85
2022/01/08 09:17:08;;;;;;;157.73;42.38;;;;;;;-0.12;100.00;101129.63;5071679;28;20078;-84
2022/01/08 09:19:33;;;;;;;161.30;42.92;;;;;;;-0.07;100.00;101132.28;5090507;28;20863;-83
2022/01/08 09:22:01;;;;;;;159.50;42.20;;;;;;;-0.05;100.00;101125.50;5092206;28;20056;-83
2022/01/08 09:24:28;;;;;;;150.80;42.47;;;;;;;-0.01;100.00;101125.59;5076326;28;20032;-84
2022/01/08 09:26:53;;;;;;;163.68;43.38;;;;;;;0.02;100.00;101113.72;5071840;28;20483;-84
2022/01/08 09:29:18;;;;;;;152.73;41.28;;;;;;;0.02;100.00;101101.75;5085988;28;20032;-84
2022/01/08 09:31:44;;;;;;;165.80;42.75;;;;;;;0.05;100.00;101093.28;5091301;28;20027;-84
2022/01/08 09:34:10;;;;;;;143.02;41.22;;;;;;;0.06;100.00;101093.28;5086655;28;20510;-84
2022/01/08 09:36:38;;;;;;;144.80;41.28;;;;;;;0.11;100.00;101089.16;5071633;28;20032;-84
2022/01/08 09:39:04;;;;;;;154.80;43.30;;;;;;;0.16;100.00;101090.13;5071437;28;20121;-84
2022/01/08 09:41:29;;;;;;;163.07;42.92;;;;;;;0.19;100.00;101092.75;5070737;28;20032;-84
2022/01/08 09:43:54;;;;;;;155.15;42.13;;;;;;;0.21;100.00;101085.09;5071266;28;20032;-83
2022/01/08 09:46:21;;;;;;;148.32;44.10;;;;;;;0.26;100.00;101080.94;5072253;28;20033;-84
2022/01/08 09:48:50;;;;;;;165.32;44.80;;;;;;;0.32;100.00;101077.63;5078610;28;20404;-84
2022/01/08 09:51:16;;;;;;;158.25;44.20;;;;;;;0.39;100.00;101074.38;5089096;28;20044;-84
2022/01/08 09:53:43;;;;;;;155.07;44.03;;;;;;;0.45;100.00;101069.38;5088499;28;20032;-83
2022/01/08 09:56:09;;;;;;;162.00;43.00;;;;;;;0.52;100.00;101066.09;5088398;28;20031;-84
2022/01/08 09:58:34;;;;;;;150.70;44.42;;;;;;;0.56;100.00;101059.38;5081962;28;20388;-83
2022/01/08 10:01:00;;;;;;;144.82;44.05;;;;;;;0.58;100.00;101058.53;5074539;28;20024;-83
2022/01/08 10:03:31;;;;;;;152.30;42.85;;;;;;;0.60;100.00;101058.59;5081424;28;20030;-84
2022/01/08 10:06:00;;;;;;;143.48;42.15;;;;;;;0.60;100.00;101041.50;5082403;28;20443;-84
2022/01/08 10:08:32;;;;;;;140.90;39.85;;;;;;;0.61;100.00;101035.50;5087821;28;20024;-84
2022/01/08 10:11:01;;;;;;;140.20;40.50;;;;;;;0.64;100.00;101029.59;5077710;28;20070;-83
2022/01/08 10:13:33;;;;;;;133.05;40.67;;;;;;;0.65;100.00;101019.38;5090369;28;20024;-83
2022/01/08 10:18:45;;;;;;;120.93;37.70;;;;;;;0.69;100.00;100997.19;5103198;28;20044;-81
2022/01/08 10:21:25;;;;;;;133.25;38.80;;;;;;;0.74;100.00;100980.16;5086401;28;20040;-82
2022/01/08 10:23:59;;;;;;;134.63;37.97;;;;;;;0.84;100.00;100981.19;5079480;28;20085;-84
2022/01/08 10:26:31;;;;;;;129.07;35.28;;;;;;;0.87;100.00;100968.44;5113709;28;20468;-82
2022/01/08 10:28:59;;;;;;;119.78;36.95;;;;;;;0.91;100.00;100970.19;5087292;28;20043;-84
2022/01/08 10:31:31;;;;;;;95.55;32.10;;;;;;;0.88;100.00;100959.88;5094510;28;20096;-82
2022/01/08 10:34:02;;;;;;;95.13;31.58;;;;;;;0.89;100.00;100959.06;5094021;28;20115;-84
2022/01/08 10:36:29;;;;;;;101.85;32.40;;;;;;;0.88;100.00;100958.19;5095341;28;20078;-83
2022/01/08 10:38:56;;;;;;;92.65;32.50;;;;;;;0.89;100.00;100948.78;5082821;28;20029;-84
2022/01/08 10:41:22;;;;;;;86.90;28.15;;;;;;;0.94;100.00;100954.84;5085065;28;20092;-85
2022/01/08 10:44:03;;;;;;;69.57;27.33;;;;;;;0.96;100.00;100942.06;5086463;28;20024;-84
2022/01/08 10:46:31;;;;;;;72.70;28.80;;;;;;;1.00;100.00;100928.44;5073952;28;20028;-84
2022/01/08 10:48:56;;;;;;;78.82;28.63;;;;;;;1.06;100.00;100925.97;5091259;28;20032;-84
2022/01/08 10:51:25;;;;;;;84.30;28.98;;;;;;;1.10;100.00;100918.34;5088410;28;20381;-84
2022/01/08 10:53:57;;;;;;;71.53;26.95;;;;;;;1.16;100.00;100915.00;5074659;28;20051;-84
2022/01/08 10:56:23;;;;;;;71.45;25.35;;;;;;;1.16;100.00;100905.59;5073773;28;20021;-84
2022/01/08 10:58:52;;;;;;;62.80;24.95;;;;;;;1.14;100.00;100904.72;5075391;28;20511;-84
2022/01/08 11:01:41;;;;;;;60.85;23.17;;;;;;;1.22;100.00;100901.41;5076313;28;20037;-84
2022/01/08 11:04:08;;;;;;;54.83;23.67;;;;;;;1.16;100.00;100891.91;5073747;28;20391;-86
2022/01/08 11:06:47;;;;;;;52.97;22.13;;;;;;;1.16;100.00;100890.19;5074157;28;20024;-86
2022/01/08 11:09:13;;;;;;;53.38;22.40;;;;;;;1.23;100.00;100882.59;5083205;28;20031;-86
2022/01/08 11:11:38;;;;;;;44.03;18.67;;;;;;;1.30;100.00;100874.13;5076116;28;20094;-86
2022/01/08 11:14:06;;;;;;;51.13;20.20;;;;;;;1.37;100.00;100865.66;5104675;28;20560;-86
2022/01/08 11:16:33;;;;;;;48.00;15.63;;;;;;;1.43;100.00;100852.91;5098558;28;20044;-86
2022/01/08 11:19:03;;;;;;;42.80;18.73;;;;;;;1.43;100.00;100840.06;5075013;28;20033;-85